首页
METAR-TAF:

METAR-TAF

机场 :

奥基乔比, 佛罗里达州, 美国

纬度: 27-15-58N, 经度: 080-51-04W, 海拔: 10米

当前天气观测

该预报发布于25分钟前的17:15 UTC
静风
温度 33°C
湿度 56%
气压 1015 hPa
能見度: 16.1公里
散云层高于3800英尺
散云层高于6000英尺

METAR: KOBE 241715Z AUTO 00000KT 10SM SCT038 SCT060 33/23 A2996 RMK AO2

时间: 13:40 (17:40 UTC)


TAF: 丢失

超过4000个机场的气象观测和天气预报(METAR&TAF报告)。

可查询的气象台以黄色和红色小点在地图上表示。

将鼠标移到小点上方,可查看气象台名称。

然后点击查看天气观测和预报。

如需切换地图:点击带黑十字的绿色按钮放大地图;点击带横线的绿色按钮缩小地图;或者点击绿色箭头查看邻近地区的地图。


METAR-TAF: